sensor_id;sensor_type;location;lat;lon;timestamp;P1;durP1;ratioP1;P2;durP2;ratioP2
53961;SDS011;39868;53.398;6.564;2022-08-19T00:02:14;4.72;;;2.40;;
53961;SDS011;39868;53.398;6.564;2022-08-19T00:04:42;3.42;;;2.47;;
53961;SDS011;39868;53.398;6.564;2022-08-19T00:07:13;4.72;;;3.15;;
53961;SDS011;39868;53.398;6.564;2022-08-19T00:09:41;6.53;;;3.40;;
53961;SDS011;39868;53.398;6.564;2022-08-19T00:12:08;4.55;;;2.80;;
53961;SDS011;39868;53.398;6.564;2022-08-19T00:14:37;5.28;;;3.10;;
53961;SDS011;39868;53.398;6.564;2022-08-19T00:17:05;3.45;;;3.05;;
53961;SDS011;39868;53.398;6.564;2022-08-19T00:19:35;4.68;;;2.97;;
53961;SDS011;39868;53.398;6.564;2022-08-19T00:22:03;4.40;;;3.33;;
53961;SDS011;39868;53.398;6.564;2022-08-19T00:24:32;4.65;;;3.17;;
53961;SDS011;39868;53.398;6.564;2022-08-19T00:27:01;6.38;;;3.03;;
53961;SDS011;39868;53.398;6.564;2022-08-19T00:29:48;5.95;;;3.13;;
53961;SDS011;39868;53.398;6.564;2022-08-19T00:32:18;5.05;;;2.90;;
53961;SDS011;39868;53.398;6.564;2022-08-19T00:34:47;3.85;;;2.80;;
53961;SDS011;39868;53.398;6.564;2022-08-19T00:37:14;4.18;;;3.03;;
53961;SDS011;39868;53.398;6.564;2022-08-19T00:39:42;5.20;;;3.22;;
53961;SDS011;39868;53.398;6.564;2022-08-19T00:42:09;4.63;;;2.88;;
53961;SDS011;39868;53.398;6.564;2022-08-19T00:44:41;5.32;;;3.00;;
53961;SDS011;39868;53.398;6.564;2022-08-19T00:47:09;5.47;;;3.28;;
53961;SDS011;39868;53.398;6.564;2022-08-19T00:49:41;4.60;;;3.28;;
53961;SDS011;39868;53.398;6.564;2022-08-19T00:52:17;5.07;;;3.47;;
53961;SDS011;39868;53.398;6.564;2022-08-19T00:54:49;5.25;;;3.10;;
53961;SDS011;39868;53.398;6.564;2022-08-19T00:57:20;7.03;;;3.38;;
53961;SDS011;39868;53.398;6.564;2022-08-19T00:59:55;4.93;;;3.30;;
53961;SDS011;39868;53.398;6.564;2022-08-19T01:02:28;7.50;;;3.17;;
53961;SDS011;39868;53.398;6.564;2022-08-19T01:04:57;5.53;;;3.75;;
53961;SDS011;39868;53.398;6.564;2022-08-19T01:07:26;5.38;;;3.33;;
53961;SDS011;39868;53.398;6.564;2022-08-19T01:10:01;6.40;;;3.20;;
53961;SDS011;39868;53.398;6.564;2022-08-19T01:12:29;7.35;;;3.42;;
53961;SDS011;39868;53.398;6.564;2022-08-19T01:14:57;5.00;;;2.92;;
53961;SDS011;39868;53.398;6.564;2022-08-19T01:17:26;3.80;;;2.70;;
53961;SDS011;39868;53.398;6.564;2022-08-19T01:19:54;6.07;;;3.40;;
53961;SDS011;39868;53.398;6.564;2022-08-19T01:24:58;4.93;;;3.33;;
53961;SDS011;39868;53.398;6.564;2022-08-19T01:27:26;4.65;;;3.42;;
53961;SDS011;39868;53.398;6.564;2022-08-19T01:30:09;5.78;;;3.75;;
53961;SDS011;39868;53.398;6.564;2022-08-19T01:32:39;7.18;;;3.85;;
53961;SDS011;39868;53.398;6.564;2022-08-19T01:35:07;7.45;;;4.15;;
53961;SDS011;39868;53.398;6.564;2022-08-19T01:37:46;5.95;;;3.45;;
53961;SDS011;39868;53.398;6.564;2022-08-19T01:40:18;7.90;;;4.05;;
53961;SDS011;39868;53.398;6.564;2022-08-19T01:42:47;6.07;;;3.55;;
53961;SDS011;39868;53.398;6.564;2022-08-19T01:45:17;6.45;;;4.00;;
53961;SDS011;39868;53.398;6.564;2022-08-19T01:47:46;4.90;;;3.25;;
53961;SDS011;39868;53.398;6.564;2022-08-19T01:50:28;6.35;;;3.60;;
53961;SDS011;39868;53.398;6.564;2022-08-19T01:52:58;7.40;;;3.55;;
53961;SDS011;39868;53.398;6.564;2022-08-19T01:55:34;5.47;;;3.22;;
53961;SDS011;39868;53.398;6.564;2022-08-19T01:58:18;6.03;;;3.28;;
53961;SDS011;39868;53.398;6.564;2022-08-19T02:00:49;6.38;;;3.75;;
53961;SDS011;39868;53.398;6.564;2022-08-19T02:03:17;5.82;;;3.40;;
53961;SDS011;39868;53.398;6.564;2022-08-19T02:05:44;8.90;;;3.38;;
53961;SDS011;39868;53.398;6.564;2022-08-19T02:08:12;6.00;;;3.60;;
53961;SDS011;39868;53.398;6.564;2022-08-19T02:10:41;6.32;;;3.95;;
53961;SDS011;39868;53.398;6.564;2022-08-19T02:13:11;7.18;;;3.72;;
53961;SDS011;39868;53.398;6.564;2022-08-19T02:15:39;5.00;;;3.35;;
53961;SDS011;39868;53.398;6.564;2022-08-19T02:18:07;5.75;;;3.60;;
53961;SDS011;39868;53.398;6.564;2022-08-19T02:20:36;4.90;;;2.72;;
53961;SDS011;39868;53.398;6.564;2022-08-19T02:23:05;3.83;;;2.80;;
53961;SDS011;39868;53.398;6.564;2022-08-19T02:25:42;4.43;;;2.80;;
53961;SDS011;39868;53.398;6.564;2022-08-19T02:28:11;4.22;;;2.75;;
53961;SDS011;39868;53.398;6.564;2022-08-19T02:30:44;4.32;;;2.55;;
53961;SDS011;39868;53.398;6.564;2022-08-19T02:33:13;3.83;;;2.60;;
53961;SDS011;39868;53.398;6.564;2022-08-19T02:35:42;4.15;;;2.78;;
53961;SDS011;39868;53.398;6.564;2022-08-19T02:38:13;5.15;;;2.40;;
53961;SDS011;39868;53.398;6.564;2022-08-19T02:40:58;5.80;;;3.00;;
53961;SDS011;39868;53.398;6.564;2022-08-19T02:43:33;5.05;;;3.00;;
53961;SDS011;39868;53.398;6.564;2022-08-19T02:46:26;4.55;;;2.90;;
53961;SDS011;39868;53.398;6.564;2022-08-19T02:48:57;7.65;;;3.70;;
53961;SDS011;39868;53.398;6.564;2022-08-19T02:51:27;5.85;;;3.42;;
53961;SDS011;39868;53.398;6.564;2022-08-19T02:54:03;5.90;;;3.67;;
53961;SDS011;39868;53.398;6.564;2022-08-19T02:56:33;7.30;;;3.65;;
53961;SDS011;39868;53.398;6.564;2022-08-19T02:59:03;5.22;;;3.30;;
53961;SDS011;39868;53.398;6.564;2022-08-19T03:01:40;7.78;;;3.47;;
53961;SDS011;39868;53.398;6.564;2022-08-19T03:04:10;6.47;;;3.58;;
53961;SDS011;39868;53.398;6.564;2022-08-19T03:06:40;6.25;;;3.28;;
53961;SDS011;39868;53.398;6.564;2022-08-19T03:09:10;6.13;;;3.55;;
53961;SDS011;39868;53.398;6.564;2022-08-19T03:11:39;8.40;;;3.80;;
53961;SDS011;39868;53.398;6.564;2022-08-19T03:14:07;8.07;;;3.97;;
53961;SDS011;39868;53.398;6.564;2022-08-19T03:16:46;8.07;;;3.83;;
53961;SDS011;39868;53.398;6.564;2022-08-19T03:19:16;9.05;;;4.00;;
53961;SDS011;39868;53.398;6.564;2022-08-19T03:21:45;6.88;;;3.80;;
53961;SDS011;39868;53.398;6.564;2022-08-19T03:24:13;6.22;;;3.22;;
53961;SDS011;39868;53.398;6.564;2022-08-19T03:26:43;7.00;;;3.45;;
53961;SDS011;39868;53.398;6.564;2022-08-19T03:29:14;6.80;;;3.40;;
53961;SDS011;39868;53.398;6.564;2022-08-19T03:31:56;5.78;;;2.90;;
53961;SDS011;39868;53.398;6.564;2022-08-19T03:34:25;5.15;;;2.78;;
53961;SDS011;39868;53.398;6.564;2022-08-19T03:36:58;4.25;;;2.58;;
53961;SDS011;39868;53.398;6.564;2022-08-19T03:39:27;6.28;;;2.83;;
53961;SDS011;39868;53.398;6.564;2022-08-19T03:41:55;5.57;;;2.92;;
53961;SDS011;39868;53.398;6.564;2022-08-19T03:44:43;5.75;;;3.17;;
53961;SDS011;39868;53.398;6.564;2022-08-19T03:47:11;5.07;;;3.05;;
53961;SDS011;39868;53.398;6.564;2022-08-19T03:49:42;4.72;;;3.25;;
53961;SDS011;39868;53.398;6.564;2022-08-19T11:33:56;17.95;;;13.15;;
53961;SDS011;39868;53.398;6.564;2022-08-19T11:36:24;14.60;;;10.85;;
53961;SDS011;39868;53.398;6.564;2022-08-19T11:38:53;18.95;;;11.43;;
53961;SDS011;39868;53.398;6.564;2022-08-19T11:41:21;12.95;;;10.13;;
53961;SDS011;39868;53.398;6.564;2022-08-19T11:43:50;13.90;;;10.52;;
53961;SDS011;39868;53.398;6.564;2022-08-19T11:46:22;13.63;;;10.23;;
53961;SDS011;39868;53.398;6.564;2022-08-19T11:48:51;11.50;;;8.75;;
53961;SDS011;39868;53.398;6.564;2022-08-19T11:51:20;10.15;;;8.68;;
53961;SDS011;39868;53.398;6.564;2022-08-19T11:53:51;10.38;;;8.23;;
53961;SDS011;39868;53.398;6.564;2022-08-19T11:56:22;10.03;;;7.37;;
53961;SDS011;39868;53.398;6.564;2022-08-19T11:58:51;9.38;;;7.65;;
53961;SDS011;39868;53.398;6.564;2022-08-19T12:01:20;10.80;;;8.05;;
53961;SDS011;39868;53.398;6.564;2022-08-19T12:03:50;9.48;;;7.82;;
53961;SDS011;39868;53.398;6.564;2022-08-19T12:06:20;9.82;;;8.15;;
53961;SDS011;39868;53.398;6.564;2022-08-19T12:08:55;9.65;;;8.32;;
53961;SDS011;39868;53.398;6.564;2022-08-19T12:11:24;9.02;;;8.05;;
53961;SDS011;39868;53.398;6.564;2022-08-19T12:13:52;11.07;;;8.35;;
53961;SDS011;39868;53.398;6.564;2022-08-19T12:16:22;9.50;;;8.40;;
53961;SDS011;39868;53.398;6.564;2022-08-19T12:18:54;11.00;;;8.55;;
53961;SDS011;39868;53.398;6.564;2022-08-19T12:21:23;10.77;;;8.75;;
53961;SDS011;39868;53.398;6.564;2022-08-19T12:23:55;10.82;;;9.13;;
53961;SDS011;39868;53.398;6.564;2022-08-19T12:26:24;10.00;;;8.45;;
53961;SDS011;39868;53.398;6.564;2022-08-19T12:28:53;11.27;;;8.80;;
53961;SDS011;39868;53.398;6.564;2022-08-19T12:31:21;11.63;;;8.80;;
53961;SDS011;39868;53.398;6.564;2022-08-19T12:33:49;11.15;;;8.82;;
53961;SDS011;39868;53.398;6.564;2022-08-19T12:36:17;12.32;;;9.35;;
53961;SDS011;39868;53.398;6.564;2022-08-19T12:38:45;14.43;;;10.00;;
53961;SDS011;39868;53.398;6.564;2022-08-19T12:41:14;12.98;;;9.70;;
53961;SDS011;39868;53.398;6.564;2022-08-19T12:43:45;13.38;;;9.50;;
53961;SDS011;39868;53.398;6.564;2022-08-19T12:46:16;22.67;;;13.57;;
53961;SDS011;39868;53.398;6.564;2022-08-19T12:48:47;22.52;;;14.43;;
53961;SDS011;39868;53.398;6.564;2022-08-19T12:51:20;25.77;;;13.85;;
53961;SDS011;39868;53.398;6.564;2022-08-19T12:53:48;19.50;;;11.57;;
53961;SDS011;39868;53.398;6.564;2022-08-19T12:56:16;21.98;;;11.35;;
53961;SDS011;39868;53.398;6.564;2022-08-19T12:58:48;25.73;;;12.35;;
53961;SDS011;39868;53.398;6.564;2022-08-19T13:01:18;18.13;;;10.93;;
53961;SDS011;39868;53.398;6.564;2022-08-19T13:03:49;17.58;;;10.35;;
53961;SDS011;39868;53.398;6.564;2022-08-19T13:06:19;17.88;;;10.88;;
53961;SDS011;39868;53.398;6.564;2022-08-19T13:08:48;21.92;;;11.00;;
53961;SDS011;39868;53.398;6.564;2022-08-19T13:11:16;15.82;;;9.90;;
53961;SDS011;39868;53.398;6.564;2022-08-19T13:13:47;18.08;;;10.30;;
53961;SDS011;39868;53.398;6.564;2022-08-19T13:16:17;18.50;;;10.13;;
53961;SDS011;39868;53.398;6.564;2022-08-19T13:18:47;19.10;;;10.82;;
53961;SDS011;39868;53.398;6.564;2022-08-19T13:21:15;16.98;;;9.85;;
53961;SDS011;39868;53.398;6.564;2022-08-19T13:23:42;15.98;;;10.07;;
53961;SDS011;39868;53.398;6.564;2022-08-19T13:26:10;18.38;;;9.88;;
53961;SDS011;39868;53.398;6.564;2022-08-19T13:28:40;17.20;;;10.23;;
53961;SDS011;39868;53.398;6.564;2022-08-19T13:31:27;15.25;;;9.35;;
53961;SDS011;39868;53.398;6.564;2022-08-19T13:34:15;14.95;;;8.27;;
53961;SDS011;39868;53.398;6.564;2022-08-19T13:36:44;13.23;;;8.90;;
53961;SDS011;39868;53.398;6.564;2022-08-19T13:39:12;13.07;;;8.35;;
53961;SDS011;39868;53.398;6.564;2022-08-19T13:41:43;15.25;;;9.73;;
53961;SDS011;39868;53.398;6.564;2022-08-19T13:44:15;13.35;;;7.38;;
53961;SDS011;39868;53.398;6.564;2022-08-19T13:46:47;9.68;;;7.13;;
53961;SDS011;39868;53.398;6.564;2022-08-19T13:49:19;11.95;;;7.18;;
53961;SDS011;39868;53.398;6.564;2022-08-19T13:51:47;11.88;;;7.82;;
53961;SDS011;39868;53.398;6.564;2022-08-19T13:54:15;14.40;;;7.32;;
53961;SDS011;39868;53.398;6.564;2022-08-19T13:56:43;15.23;;;8.57;;
53961;SDS011;39868;53.398;6.564;2022-08-19T13:59:11;15.10;;;8.30;;
53961;SDS011;39868;53.398;6.564;2022-08-19T14:01:39;15.35;;;8.90;;
53961;SDS011;39868;53.398;6.564;2022-08-19T14:04:08;12.65;;;8.05;;
53961;SDS011;39868;53.398;6.564;2022-08-19T14:06:36;13.57;;;8.05;;
53961;SDS011;39868;53.398;6.564;2022-08-19T14:09:03;14.02;;;7.65;;
53961;SDS011;39868;53.398;6.564;2022-08-19T14:11:32;20.27;;;8.80;;
53961;SDS011;39868;53.398;6.564;2022-08-19T14:13:59;16.05;;;9.10;;
53961;SDS011;39868;53.398;6.564;2022-08-19T14:16:27;12.43;;;8.02;;
53961;SDS011;39868;53.398;6.564;2022-08-19T14:18:57;10.18;;;8.07;;
53961;SDS011;39868;53.398;6.564;2022-08-19T14:21:24;9.10;;;7.25;;
53961;SDS011;39868;53.398;6.564;2022-08-19T14:23:52;9.85;;;7.95;;
53961;SDS011;39868;53.398;6.564;2022-08-19T14:26:23;12.40;;;7.28;;
53961;SDS011;39868;53.398;6.564;2022-08-19T14:28:50;8.60;;;6.95;;
53961;SDS011;39868;53.398;6.564;2022-08-19T14:31:19;9.73;;;7.32;;
53961;SDS011;39868;53.398;6.564;2022-08-19T14:33:48;9.00;;;7.13;;
53961;SDS011;39868;53.398;6.564;2022-08-19T14:36:17;7.85;;;6.38;;
53961;SDS011;39868;53.398;6.564;2022-08-19T14:38:47;9.35;;;6.32;;
53961;SDS011;39868;53.398;6.564;2022-08-19T14:41:19;6.78;;;6.13;;
53961;SDS011;39868;53.398;6.564;2022-08-19T14:43:49;7.30;;;6.60;;
53961;SDS011;39868;53.398;6.564;2022-08-19T14:46:22;7.78;;;6.55;;
53961;SDS011;39868;53.398;6.564;2022-08-19T14:48:54;9.18;;;6.63;;
53961;SDS011;39868;53.398;6.564;2022-08-19T14:51:25;7.80;;;6.20;;
53961;SDS011;39868;53.398;6.564;2022-08-19T14:53:53;8.82;;;6.53;;
53961;SDS011;39868;53.398;6.564;2022-08-19T14:56:22;10.93;;;7.78;;
53961;SDS011;39868;53.398;6.564;2022-08-19T14:58:52;12.98;;;8.80;;
53961;SDS011;39868;53.398;6.564;2022-08-19T15:01:21;11.75;;;8.38;;
53961;SDS011;39868;53.398;6.564;2022-08-19T15:03:49;13.35;;;8.88;;
53961;SDS011;39868;53.398;6.564;2022-08-19T15:06:20;13.80;;;8.30;;
53961;SDS011;39868;53.398;6.564;2022-08-19T15:08:49;13.25;;;8.63;;
53961;SDS011;39868;53.398;6.564;2022-08-19T15:11:19;13.05;;;8.20;;
53961;SDS011;39868;53.398;6.564;2022-08-19T15:13:49;12.87;;;8.10;;
53961;SDS011;39868;53.398;6.564;2022-08-19T15:16:17;11.75;;;8.85;;
53961;SDS011;39868;53.398;6.564;2022-08-19T15:18:46;14.70;;;9.35;;
53961;SDS011;39868;53.398;6.564;2022-08-19T15:21:16;16.35;;;9.60;;
53961;SDS011;39868;53.398;6.564;2022-08-19T15:23:53;14.20;;;9.20;;
53961;SDS011;39868;53.398;6.564;2022-08-19T15:26:22;11.85;;;8.23;;
53961;SDS011;39868;53.398;6.564;2022-08-19T15:28:52;11.40;;;7.88;;
53961;SDS011;39868;53.398;6.564;2022-08-19T15:31:20;11.40;;;7.65;;
53961;SDS011;39868;53.398;6.564;2022-08-19T15:33:55;12.95;;;7.53;;
53961;SDS011;39868;53.398;6.564;2022-08-19T15:36:25;14.77;;;8.38;;
53961;SDS011;39868;53.398;6.564;2022-08-19T15:38:56;14.85;;;7.25;;
53961;SDS011;39868;53.398;6.564;2022-08-19T15:41:28;13.70;;;7.43;;
53961;SDS011;39868;53.398;6.564;2022-08-19T15:46:27;10.52;;;6.78;;
53961;SDS011;39868;53.398;6.564;2022-08-19T15:48:58;12.50;;;7.80;;
53961;SDS011;39868;53.398;6.564;2022-08-19T15:51:29;14.02;;;7.95;;
53961;SDS011;39868;53.398;6.564;2022-08-19T15:53:58;11.75;;;7.47;;
53961;SDS011;39868;53.398;6.564;2022-08-19T15:56:27;14.48;;;8.25;;
53961;SDS011;39868;53.398;6.564;2022-08-19T15:59:23;12.18;;;7.90;;
53961;SDS011;39868;53.398;6.564;2022-08-19T16:02:13;13.25;;;8.60;;
53961;SDS011;39868;53.398;6.564;2022-08-19T16:05:03;13.00;;;8.70;;
53961;SDS011;39868;53.398;6.564;2022-08-19T16:07:51;12.98;;;8.82;;
53961;SDS011;39868;53.398;6.564;2022-08-19T16:10:20;15.35;;;9.75;;
53961;SDS011;39868;53.398;6.564;2022-08-19T16:12:53;13.25;;;9.35;;
53961;SDS011;39868;53.398;6.564;2022-08-19T16:15:23;16.13;;;9.77;;
53961;SDS011;39868;53.398;6.564;2022-08-19T16:17:56;13.90;;;9.65;;
53961;SDS011;39868;53.398;6.564;2022-08-19T16:20:24;12.77;;;9.15;;
53961;SDS011;39868;53.398;6.564;2022-08-19T16:22:54;13.52;;;9.35;;
53961;SDS011;39868;53.398;6.564;2022-08-19T16:25:24;14.27;;;9.15;;
53961;SDS011;39868;53.398;6.564;2022-08-19T16:27:55;12.20;;;8.23;;
53961;SDS011;39868;53.398;6.564;2022-08-19T16:30:32;14.90;;;9.63;;
53961;SDS011;39868;53.398;6.564;2022-08-19T16:33:00;15.35;;;9.68;;
53961;SDS011;39868;53.398;6.564;2022-08-19T16:35:29;14.40;;;9.82;;
53961;SDS011;39868;53.398;6.564;2022-08-19T16:37:56;13.75;;;10.00;;
53961;SDS011;39868;53.398;6.564;2022-08-19T16:40:24;14.55;;;10.20;;
53961;SDS011;39868;53.398;6.564;2022-08-19T16:42:51;14.10;;;10.02;;
53961;SDS011;39868;53.398;6.564;2022-08-19T16:45:19;17.80;;;10.00;;
53961;SDS011;39868;53.398;6.564;2022-08-19T16:47:47;13.50;;;9.23;;
53961;SDS011;39868;53.398;6.564;2022-08-19T16:50:16;14.15;;;9.43;;
53961;SDS011;39868;53.398;6.564;2022-08-19T16:52:59;12.05;;;8.90;;
53961;SDS011;39868;53.398;6.564;2022-08-19T16:55:26;13.70;;;9.27;;
53961;SDS011;39868;53.398;6.564;2022-08-19T16:57:54;14.48;;;9.55;;
53961;SDS011;39868;53.398;6.564;2022-08-19T17:00:23;11.88;;;9.70;;
53961;SDS011;39868;53.398;6.564;2022-08-19T17:02:50;13.82;;;9.90;;
53961;SDS011;39868;53.398;6.564;2022-08-19T17:05:19;18.95;;;9.63;;
53961;SDS011;39868;53.398;6.564;2022-08-19T17:07:52;11.85;;;7.90;;
53961;SDS011;39868;53.398;6.564;2022-08-19T17:10:22;10.48;;;7.53;;
53961;SDS011;39868;53.398;6.564;2022-08-19T17:12:52;11.52;;;7.93;;
53961;SDS011;39868;53.398;6.564;2022-08-19T17:15:21;9.98;;;7.65;;
53961;SDS011;39868;53.398;6.564;2022-08-19T17:17:51;8.90;;;7.57;;
53961;SDS011;39868;53.398;6.564;2022-08-19T17:20:19;8.38;;;6.95;;
53961;SDS011;39868;53.398;6.564;2022-08-19T17:22:47;9.93;;;8.15;;
53961;SDS011;39868;53.398;6.564;2022-08-19T17:25:15;9.15;;;7.38;;
53961;SDS011;39868;53.398;6.564;2022-08-19T17:27:43;8.57;;;7.32;;
53961;SDS011;39868;53.398;6.564;2022-08-19T17:30:11;9.43;;;8.15;;
53961;SDS011;39868;53.398;6.564;2022-08-19T17:32:38;8.50;;;7.22;;
53961;SDS011;39868;53.398;6.564;2022-08-19T17:35:06;13.82;;;7.72;;
53961;SDS011;39868;53.398;6.564;2022-08-19T17:37:35;9.18;;;6.60;;
53961;SDS011;39868;53.398;6.564;2022-08-19T17:40:04;8.18;;;6.95;;
53961;SDS011;39868;53.398;6.564;2022-08-19T17:42:34;9.30;;;7.10;;
53961;SDS011;39868;53.398;6.564;2022-08-19T17:45:02;7.80;;;6.63;;
53961;SDS011;39868;53.398;6.564;2022-08-19T17:47:30;8.88;;;6.93;;
53961;SDS011;39868;53.398;6.564;2022-08-19T17:49:58;8.32;;;6.65;;
53961;SDS011;39868;53.398;6.564;2022-08-19T17:52:26;8.27;;;6.68;;
53961;SDS011;39868;53.398;6.564;2022-08-19T17:54:54;9.60;;;6.57;;
53961;SDS011;39868;53.398;6.564;2022-08-19T17:57:23;6.45;;;5.85;;
53961;SDS011;39868;53.398;6.564;2022-08-19T17:59:51;6.38;;;5.63;;
53961;SDS011;39868;53.398;6.564;2022-08-19T18:02:23;8.50;;;5.85;;
53961;SDS011;39868;53.398;6.564;2022-08-19T18:04:51;7.13;;;5.63;;
53961;SDS011;39868;53.398;6.564;2022-08-19T18:07:19;7.32;;;5.38;;
53961;SDS011;39868;53.398;6.564;2022-08-19T18:09:47;5.70;;;5.07;;
53961;SDS011;39868;53.398;6.564;2022-08-19T18:12:22;6.03;;;5.32;;
53961;SDS011;39868;53.398;6.564;2022-08-19T18:14:53;6.60;;;5.05;;
53961;SDS011;39868;53.398;6.564;2022-08-19T18:17:20;5.88;;;5.10;;
53961;SDS011;39868;53.398;6.564;2022-08-19T18:19:49;5.47;;;4.95;;
53961;SDS011;39868;53.398;6.564;2022-08-19T18:22:24;6.78;;;5.65;;
53961;SDS011;39868;53.398;6.564;2022-08-19T18:24:54;6.60;;;5.85;;
53961;SDS011;39868;53.398;6.564;2022-08-19T18:27:23;6.35;;;5.75;;
53961;SDS011;39868;53.398;6.564;2022-08-19T18:29:53;6.88;;;5.28;;
53961;SDS011;39868;53.398;6.564;2022-08-19T18:32:26;6.07;;;5.30;;
53961;SDS011;39868;53.398;6.564;2022-08-19T18:35:01;7.03;;;5.57;;
53961;SDS011;39868;53.398;6.564;2022-08-19T18:37:32;6.25;;;5.25;;
53961;SDS011;39868;53.398;6.564;2022-08-19T18:40:00;5.63;;;5.13;;
53961;SDS011;39868;53.398;6.564;2022-08-19T18:42:47;5.40;;;4.90;;
53961;SDS011;39868;53.398;6.564;2022-08-19T18:45:33;5.03;;;4.57;;
53961;SDS011;39868;53.398;6.564;2022-08-19T18:48:20;7.32;;;5.45;;
53961;SDS011;39868;53.398;6.564;2022-08-19T18:51:08;6.13;;;5.63;;
53961;SDS011;39868;53.398;6.564;2022-08-19T18:53:38;7.13;;;5.50;;
53961;SDS011;39868;53.398;6.564;2022-08-19T18:56:07;6.72;;;5.53;;
53961;SDS011;39868;53.398;6.564;2022-08-19T18:58:39;8.80;;;6.32;;
53961;SDS011;39868;53.398;6.564;2022-08-19T19:01:16;5.97;;;5.40;;
53961;SDS011;39868;53.398;6.564;2022-08-19T19:03:48;9.77;;;6.18;;
53961;SDS011;39868;53.398;6.564;2022-08-19T19:06:23;6.63;;;5.95;;
53961;SDS011;39868;53.398;6.564;2022-08-19T19:08:54;6.90;;;6.20;;
53961;SDS011;39868;53.398;6.564;2022-08-19T19:11:24;7.25;;;6.53;;
53961;SDS011;39868;53.398;6.564;2022-08-19T19:13:55;9.77;;;5.70;;
53961;SDS011;39868;53.398;6.564;2022-08-19T19:16:23;6.30;;;5.70;;
53961;SDS011;39868;53.398;6.564;2022-08-19T19:18:51;6.57;;;5.45;;
53961;SDS011;39868;53.398;6.564;2022-08-19T19:21:20;6.70;;;4.68;;
53961;SDS011;39868;53.398;6.564;2022-08-19T19:23:49;5.35;;;4.82;;
53961;SDS011;39868;53.398;6.564;2022-08-19T19:26:18;5.43;;;4.93;;
53961;SDS011;39868;53.398;6.564;2022-08-19T19:28:47;5.28;;;4.78;;
53961;SDS011;39868;53.398;6.564;2022-08-19T19:31:16;5.05;;;4.60;;
53961;SDS011;39868;53.398;6.564;2022-08-19T19:33:48;5.88;;;4.53;;
53961;SDS011;39868;53.398;6.564;2022-08-19T19:36:18;5.35;;;4.85;;
53961;SDS011;39868;53.398;6.564;2022-08-19T19:38:48;5.10;;;3.17;;
53961;SDS011;39868;53.398;6.564;2022-08-19T19:41:17;4.05;;;3.13;;
53961;SDS011;39868;53.398;6.564;2022-08-19T19:43:53;5.47;;;3.80;;
53961;SDS011;39868;53.398;6.564;2022-08-19T19:46:42;5.35;;;4.03;;
53961;SDS011;39868;53.398;6.564;2022-08-19T19:49:10;7.03;;;4.25;;
53961;SDS011;39868;53.398;6.564;2022-08-19T19:51:38;5.22;;;4.10;;
53961;SDS011;39868;53.398;6.564;2022-08-19T19:54:07;7.25;;;4.45;;
53961;SDS011;39868;53.398;6.564;2022-08-19T19:56:40;6.28;;;4.35;;
53961;SDS011;39868;53.398;6.564;2022-08-19T20:01:39;7.30;;;4.47;;
53961;SDS011;39868;53.398;6.564;2022-08-19T20:04:13;7.35;;;4.90;;
53961;SDS011;39868;53.398;6.564;2022-08-19T20:06:42;7.82;;;4.65;;
53961;SDS011;39868;53.398;6.564;2022-08-19T20:09:11;9.07;;;4.93;;
53961;SDS011;39868;53.398;6.564;2022-08-19T20:11:47;6.95;;;4.80;;
53961;SDS011;39868;53.398;6.564;2022-08-19T20:14:20;7.70;;;4.57;;
53961;SDS011;39868;53.398;6.564;2022-08-19T20:16:50;9.65;;;4.88;;
53961;SDS011;39868;53.398;6.564;2022-08-19T20:19:20;7.18;;;5.13;;
53961;SDS011;39868;53.398;6.564;2022-08-19T20:21:49;6.03;;;4.45;;
53961;SDS011;39868;53.398;6.564;2022-08-19T20:24:21;7.22;;;4.63;;
53961;SDS011;39868;53.398;6.564;2022-08-19T20:26:52;7.55;;;4.95;;
53961;SDS011;39868;53.398;6.564;2022-08-19T20:29:20;7.32;;;5.40;;
53961;SDS011;39868;53.398;6.564;2022-08-19T20:32:05;8.05;;;5.90;;
53961;SDS011;39868;53.398;6.564;2022-08-19T20:34:32;7.75;;;5.07;;
53961;SDS011;39868;53.398;6.564;2022-08-19T20:37:00;7.90;;;5.28;;
53961;SDS011;39868;53.398;6.564;2022-08-19T20:39:28;7.85;;;4.65;;
53961;SDS011;39868;53.398;6.564;2022-08-19T20:41:56;9.13;;;4.75;;
53961;SDS011;39868;53.398;6.564;2022-08-19T20:44:24;6.60;;;4.40;;
53961;SDS011;39868;53.398;6.564;2022-08-19T20:46:52;7.72;;;5.18;;
53961;SDS011;39868;53.398;6.564;2022-08-19T20:49:24;7.05;;;4.97;;
53961;SDS011;39868;53.398;6.564;2022-08-19T20:51:54;9.75;;;5.43;;
53961;SDS011;39868;53.398;6.564;2022-08-19T20:54:22;9.70;;;5.85;;
53961;SDS011;39868;53.398;6.564;2022-08-19T20:56:50;8.90;;;5.35;;
53961;SDS011;39868;53.398;6.564;2022-08-19T20:59:19;8.38;;;5.55;;
53961;SDS011;39868;53.398;6.564;2022-08-19T21:01:47;7.28;;;5.28;;
53961;SDS011;39868;53.398;6.564;2022-08-19T21:04:19;8.70;;;5.28;;
53961;SDS011;39868;53.398;6.564;2022-08-19T21:06:50;7.63;;;5.05;;
53961;SDS011;39868;53.398;6.564;2022-08-19T21:09:21;8.20;;;5.55;;
53961;SDS011;39868;53.398;6.564;2022-08-19T21:11:52;6.50;;;4.75;;
53961;SDS011;39868;53.398;6.564;2022-08-19T21:14:19;6.43;;;3.88;;
53961;SDS011;39868;53.398;6.564;2022-08-19T21:16:51;5.55;;;3.63;;
53961;SDS011;39868;53.398;6.564;2022-08-19T21:19:20;3.88;;;2.85;;
53961;SDS011;39868;53.398;6.564;2022-08-19T21:22:01;5.90;;;3.10;;
53961;SDS011;39868;53.398;6.564;2022-08-19T21:24:29;6.13;;;3.17;;
53961;SDS011;39868;53.398;6.564;2022-08-19T21:26:57;5.82;;;4.10;;
53961;SDS011;39868;53.398;6.564;2022-08-19T21:29:25;6.18;;;3.40;;
53961;SDS011;39868;53.398;6.564;2022-08-19T21:31:52;8.00;;;3.88;;
53961;SDS011;39868;53.398;6.564;2022-08-19T21:34:20;4.35;;;3.60;;
53961;SDS011;39868;53.398;6.564;2022-08-19T21:36:47;6.22;;;3.65;;
53961;SDS011;39868;53.398;6.564;2022-08-19T21:39:15;5.95;;;3.92;;
53961;SDS011;39868;53.398;6.564;2022-08-19T21:41:43;5.43;;;3.53;;
53961;SDS011;39868;53.398;6.564;2022-08-19T21:44:10;5.97;;;3.42;;
53961;SDS011;39868;53.398;6.564;2022-08-19T21:46:38;7.38;;;2.90;;
53961;SDS011;39868;53.398;6.564;2022-08-19T21:49:05;3.80;;;3.00;;
53961;SDS011;39868;53.398;6.564;2022-08-19T21:51:33;3.95;;;2.85;;
53961;SDS011;39868;53.398;6.564;2022-08-19T21:54:00;4.55;;;2.65;;
53961;SDS011;39868;53.398;6.564;2022-08-19T21:56:28;5.70;;;3.25;;
53961;SDS011;39868;53.398;6.564;2022-08-19T21:58:56;5.90;;;3.42;;
53961;SDS011;39868;53.398;6.564;2022-08-19T22:01:24;6.28;;;3.60;;
53961;SDS011;39868;53.398;6.564;2022-08-19T22:03:51;5.43;;;4.15;;
53961;SDS011;39868;53.398;6.564;2022-08-19T22:06:19;6.15;;;4.65;;
53961;SDS011;39868;53.398;6.564;2022-08-19T22:08:48;5.82;;;3.75;;
53961;SDS011;39868;53.398;6.564;2022-08-19T22:11:16;4.35;;;3.80;;
53961;SDS011;39868;53.398;6.564;2022-08-19T22:13:44;7.55;;;3.38;;
53961;SDS011;39868;53.398;6.564;2022-08-19T22:16:11;5.50;;;3.47;;
53961;SDS011;39868;53.398;6.564;2022-08-19T22:18:40;5.55;;;3.38;;
53961;SDS011;39868;53.398;6.564;2022-08-19T22:21:07;6.93;;;3.40;;
53961;SDS011;39868;53.398;6.564;2022-08-19T22:23:38;4.72;;;2.70;;
53961;SDS011;39868;53.398;6.564;2022-08-19T22:26:06;5.10;;;3.80;;
53961;SDS011;39868;53.398;6.564;2022-08-19T22:28:34;5.93;;;3.30;;
53961;SDS011;39868;53.398;6.564;2022-08-19T22:31:02;8.23;;;3.67;;
53961;SDS011;39868;53.398;6.564;2022-08-19T22:33:31;7.30;;;3.88;;
53961;SDS011;39868;53.398;6.564;2022-08-19T22:35:59;3.90;;;3.45;;
53961;SDS011;39868;53.398;6.564;2022-08-19T22:38:27;6.38;;;4.00;;
53961;SDS011;39868;53.398;6.564;2022-08-19T22:40:55;4.72;;;4.00;;
53961;SDS011;39868;53.398;6.564;2022-08-19T22:43:24;7.97;;;4.57;;
53961;SDS011;39868;53.398;6.564;2022-08-19T22:45:56;6.70;;;4.25;;
53961;SDS011;39868;53.398;6.564;2022-08-19T22:48:26;6.30;;;4.22;;
53961;SDS011;39868;53.398;6.564;2022-08-19T22:50:55;6.80;;;4.38;;
53961;SDS011;39868;53.398;6.564;2022-08-19T22:53:43;6.65;;;4.07;;